Albany, Iowa
Current Conditions -  °F | °C
As of 4:35 AM on Friday 31 Oct 2014 (Local Time) from KOLZ Reporting Station
Clear Clear  
Wind Chill: 18°   Ceiling: Unl
Heat Index: 30°   Visibility: 10mi
Dew Point: 18°   Wind: 17mph
Humidity: 60%   Direction: 340°NNW
Pressure: 30.32"   Gusts: 24mph
Location:  42.8663°N, 91.8396°W
Report Text: KOLZ 310935Z AUTO 34015G21KT 10SM CLR M01/M08 A3032 RMK AO2
Loading
Personal Weather Stations






























Interactive Weather Map
Tropical Storm Tracking
New forecast layout! Learn more

10-Day Weather Forecast

Advertisements
Track Severe Weather on mobile